Time,TemperatureF,DewpointF,PressureIn,WindDirection,WindDirectionDegrees,WindSpeedMPH,WindSpeedGustMPH,Humidity,HourlyPrecipIn,Conditions,Clouds,dailyrainin,SoftwareType,DateUTC
2013-04-18 00:02:00,40.0,20.0,29.98,NW,323,1.0,4.0,44,0.00,,,-99.99,,2013-04-18 06:02:00,
2013-04-18 00:12:00,40.0,18.0,30.00,WNW,303,6.0,16.0,41,0.00,,,-99.99,,2013-04-18 06:12:00,
2013-04-18 00:22:00,40.0,18.0,30.00,WNW,303,6.0,16.0,41,0.00,,,-99.99,,2013-04-18 06:22:00,
2013-04-18 00:32:00,40.0,19.0,30.00,WNW,284,7.0,7.0,42,0.00,,,-99.99,,2013-04-18 06:32:00,
2013-04-18 00:42:00,39.0,18.0,30.01,NW,309,8.0,11.0,43,0.00,,,-99.99,,2013-04-18 06:42:00,
2013-04-18 00:52:00,39.0,18.0,30.01,NW,309,8.0,11.0,43,0.00,,,-99.99,,2013-04-18 06:52:00,
2013-04-18 01:02:00,39.0,18.0,30.02,WNW,289,10.0,17.0,42,0.00,,,-99.99,,2013-04-18 07:02:00,
2013-04-18 01:12:00,39.0,19.0,30.02,NW,305,5.0,8.0,44,0.00,,,-99.99,,2013-04-18 07:12:00,
2013-04-18 01:22:00,39.0,19.0,30.02,NW,305,5.0,8.0,44,0.00,,,-99.99,,2013-04-18 07:22:00,
2013-04-18 01:32:00,38.0,19.0,30.02,NW,306,7.0,8.0,45,0.00,,,-99.99,,2013-04-18 07:32:00,
2013-04-18 01:42:00,37.0,18.0,30.03,NW,305,7.0,8.0,45,0.00,,,-99.99,,2013-04-18 07:42:00,
2013-04-18 01:52:00,37.0,18.0,30.03,NW,305,7.0,8.0,45,0.00,,,-99.99,,2013-04-18 07:52:00,
2013-04-18 02:02:00,37.0,17.0,30.03,NW,317,7.0,14.0,43,0.00,,,-99.99,,2013-04-18 08:02:00,
2013-04-18 02:12:00,37.0,17.0,30.03,NW,307,6.0,9.0,44,0.00,,,-99.99,,2013-04-18 08:12:00,
2013-04-18 02:22:00,37.0,17.0,30.03,NW,307,6.0,9.0,44,0.00,,,-99.99,,2013-04-18 08:22:00,
2013-04-18 02:32:00,36.0,16.0,30.04,NNW,345,8.0,8.0,43,0.00,,,-99.99,,2013-04-18 08:32:00,
2013-04-18 02:42:00,36.0,15.0,30.04,NW,323,12.0,12.0,42,0.00,,,-99.99,,2013-04-18 08:42:00,
2013-04-18 02:52:00,36.0,15.0,30.04,NW,323,12.0,12.0,42,0.00,,,-99.99,,2013-04-18 08:52:00,
2013-04-18 03:02:00,35.0,14.0,30.04,NW,310,6.0,13.0,42,0.00,,,-99.99,,2013-04-18 09:02:00,
2013-04-18 03:12:00,35.0,14.0,30.04,NNW,336,8.0,13.0,41,0.00,,,-99.99,,2013-04-18 09:12:00,
2013-04-18 03:22:00,35.0,14.0,30.04,NNW,336,8.0,13.0,41,0.00,,,-99.99,,2013-04-18 09:22:00,
2013-04-18 03:32:00,34.0,13.0,30.03,WNW,295,10.0,16.0,41,0.00,,,-99.99,,2013-04-18 09:32:00,
2013-04-18 03:42:00,34.0,14.0,30.04,NNW,343,8.0,11.0,44,0.00,,,-99.99,,2013-04-18 09:42:00,
2013-04-18 03:53:00,34.0,14.0,30.04,NNW,343,8.0,11.0,44,0.00,,,-99.99,,2013-04-18 09:53:00,
2013-04-18 04:03:00,34.0,14.0,30.04,North,4,5.0,13.0,43,0.00,,,-99.99,,2013-04-18 10:03:00,
2013-04-18 04:12:00,34.0,14.0,30.04,North,4,5.0,13.0,43,0.00,,,-99.99,,2013-04-18 10:12:00,
2013-04-18 04:23:00,33.0,14.0,30.05,North,2,8.0,12.0,45,0.00,,,-99.99,,2013-04-18 10:23:00,
2013-04-18 04:32:00,33.0,13.0,30.05,NNE,14,8.0,11.0,43,0.00,,,-99.99,,2013-04-18 10:32:00,
2013-04-18 04:42:00,33.0,13.0,30.05,NNE,14,8.0,11.0,43,0.00,,,-99.99,,2013-04-18 10:42:00,
2013-04-18 04:52:00,33.0,13.0,30.06,North,358,3.0,8.0,43,0.00,,,-99.99,,2013-04-18 10:52:00,
2013-04-18 05:02:00,33.0,13.0,30.06,NNW,330,7.0,7.0,43,0.00,,,-99.99,,2013-04-18 11:02:00,
2013-04-18 05:12:00,33.0,13.0,30.06,North,8,9.0,9.0,43,0.00,,,-99.99,,2013-04-18 11:12:00,
2013-04-18 05:22:00,33.0,13.0,30.06,North,8,9.0,9.0,43,0.00,,,-99.99,,2013-04-18 11:22:00,
2013-04-18 05:32:00,32.0,11.0,30.07,NNE,32,8.0,11.0,41,0.00,,,-99.99,,2013-04-18 11:32:00,
2013-04-18 05:42:00,32.0,11.0,30.07,NNE,32,8.0,11.0,41,0.00,,,-99.99,,2013-04-18 11:42:00,
2013-04-18 05:52:00,32.0,10.0,30.08,NW,316,8.0,15.0,39,0.00,,,-99.99,,2013-04-18 11:52:00,
2013-04-18 06:02:00,31.0,10.0,30.08,NNW,331,10.0,13.0,40,0.00,,,-99.99,,2013-04-18 12:02:00,
2013-04-18 06:12:00,31.0,10.0,30.08,NW,322,6.0,6.0,41,0.00,,,-99.99,,2013-04-18 12:12:00,
2013-04-18 06:22:00,31.0,10.0,30.08,NW,322,6.0,6.0,41,0.00,,,-99.99,,2013-04-18 12:22:00,
2013-04-18 06:32:00,31.0,10.0,30.09,NW,315,8.0,8.0,41,0.00,,,-99.99,,2013-04-18 12:32:00,
2013-04-18 06:42:00,31.0,10.0,30.09,NW,315,8.0,8.0,41,0.00,,,-99.99,,2013-04-18 12:42:00,
2013-04-18 06:52:00,31.0,10.0,30.10,North,8,2.0,11.0,41,0.00,,,-99.99,,2013-04-18 12:52:00,
2013-04-18 07:02:00,30.0,10.0,30.10,NNW,327,0.0,1.0,43,0.00,,,-99.99,,2013-04-18 13:02:00,
2013-04-18 07:12:00,30.0,10.0,30.11,West,277,0.0,7.0,42,0.00,,,-99.99,,2013-04-18 13:12:00,
2013-04-18 07:22:00,30.0,10.0,30.11,West,277,0.0,7.0,42,0.00,,,-99.99,,2013-04-18 13:22:00,
2013-04-18 07:32:00,30.0,9.0,30.12,NW,324,5.0,6.0,40,0.00,,,-99.99,,2013-04-18 13:32:00,
2013-04-18 07:42:00,31.0,10.0,30.13,NNE,16,10.0,11.0,40,0.00,,,-99.99,,2013-04-18 13:42:00,
2013-04-18 07:53:00,31.0,10.0,30.13,NNE,16,10.0,11.0,40,0.00,,,-99.99,,2013-04-18 13:53:00,
2013-04-18 08:02:00,31.0,9.0,30.12,NNE,21,9.0,17.0,39,0.00,,,-99.99,,2013-04-18 14:02:00,
2013-04-18 08:12:00,31.0,9.0,30.12,NNW,345,9.0,13.0,39,0.00,,,-99.99,,2013-04-18 14:12:00,
2013-04-18 08:22:00,31.0,9.0,30.12,NNW,345,9.0,13.0,39,0.00,,,-99.99,,2013-04-18 14:22:00,
2013-04-18 08:32:00,31.0,8.0,30.11,North,1,8.0,13.0,38,0.00,,,-99.99,,2013-04-18 14:32:00,
2013-04-18 08:42:00,32.0,9.0,30.11,North,4,7.0,12.0,38,0.00,,,-99.99,,2013-04-18 14:42:00,
2013-04-18 08:52:00,32.0,9.0,30.11,North,4,7.0,12.0,38,0.00,,,-99.99,,2013-04-18 14:52:00,
2013-04-18 09:02:00,33.0,10.0,30.10,NNE,29,7.0,11.0,37,0.00,,,-99.99,,2013-04-18 15:02:00,
2013-04-18 09:12:00,33.0,10.0,30.10,NNE,29,7.0,11.0,37,0.00,,,-99.99,,2013-04-18 15:12:00,
2013-04-18 09:22:00,33.0,8.0,30.09,NNW,327,11.0,17.0,35,0.00,,,-99.99,,2013-04-18 15:22:00,
2013-04-18 09:33:00,34.0,9.0,30.09,NW,320,8.0,13.0,35,0.00,,,-99.99,,2013-04-18 15:33:00,
2013-04-18 09:42:00,34.0,9.0,30.08,North,1,8.0,15.0,34,0.00,,,-99.99,,2013-04-18 15:42:00,
2013-04-18 09:53:00,34.0,9.0,30.08,North,1,8.0,15.0,34,0.00,,,-99.99,,2013-04-18 15:53:00,
2013-04-18 10:03:00,35.0,8.0,30.08,North,350,8.0,11.0,32,0.00,,,-99.99,,2013-04-18 16:03:00,
2013-04-18 10:13:00,36.0,8.0,30.06,NNE,14,6.0,13.0,31,0.00,,,-99.99,,2013-04-18 16:13:00,
2013-04-18 10:23:00,36.0,8.0,30.06,NNE,14,6.0,13.0,31,0.00,,,-99.99,,2013-04-18 16:23:00,
2013-04-18 10:33:00,37.0,9.0,30.05,NNE,19,7.0,13.0,31,0.00,,,-99.99,,2013-04-18 16:33:00,
2013-04-18 10:42:00,39.0,8.0,30.03,NW,326,9.0,18.0,27,0.00,,,-99.99,,2013-04-18 16:42:00,
2013-04-18 10:53:00,39.0,8.0,30.03,NW,326,9.0,18.0,27,0.00,,,-99.99,,2013-04-18 16:53:00,
2013-04-18 11:02:00,39.0,8.0,30.03,NW,326,10.0,24.0,27,0.00,,,-99.99,,2013-04-18 17:02:00,
2013-04-18 11:12:00,40.0,4.0,30.03,NNW,333,16.0,25.0,22,0.00,,,-99.99,,2013-04-18 17:12:00,
2013-04-18 11:22:00,40.0,4.0,30.03,NNW,333,16.0,25.0,22,0.00,,,-99.99,,2013-04-18 17:22:00,
2013-04-18 11:33:00,41.0,4.0,30.03,NNW,341,10.0,21.0,21,0.00,,,-99.99,,2013-04-18 17:33:00,
2013-04-18 11:42:00,41.0,5.0,30.02,WNW,298,14.0,26.0,22,0.00,,,-99.99,,2013-04-18 17:42:00,
2013-04-18 11:52:00,41.0,5.0,30.02,WNW,298,14.0,26.0,22,0.00,,,-99.99,,2013-04-18 17:52:00,
2013-04-18 12:02:00,41.0,7.0,30.02,WNW,286,6.0,19.0,24,0.00,,,-99.99,,2013-04-18 18:02:00,
2013-04-18 12:12:00,40.0,2.0,30.01,NNW,330,12.0,26.0,20,0.00,,,-99.99,,2013-04-18 18:12:00,
2013-04-18 12:22:00,40.0,2.0,30.01,NNW,330,12.0,26.0,20,0.00,,,-99.99,,2013-04-18 18:22:00,
2013-04-18 12:32:00,42.0,4.0,30.01,WNW,300,14.0,24.0,20,0.00,,,-99.99,,2013-04-18 18:32:00,
2013-04-18 12:42:00,43.0,4.0,30.00,WNW,293,13.0,21.0,19,0.00,,,-99.99,,2013-04-18 18:42:00,
2013-04-18 12:52:00,43.0,4.0,30.00,WNW,293,13.0,21.0,19,0.00,,,-99.99,,2013-04-18 18:52:00,
2013-04-18 13:02:00,42.0,3.0,30.00,NW,306,16.0,23.0,19,0.00,,,-99.99,,2013-04-18 19:02:00,
2013-04-18 13:12:00,42.0,3.0,30.00,NW,306,16.0,23.0,19,0.00,,,-99.99,,2013-04-18 19:12:00,
2013-04-18 13:22:00,43.0,2.0,30.00,NW,315,14.0,22.0,18,0.00,,,-99.99,,2013-04-18 19:22:00,
2013-04-18 13:32:00,43.0,2.0,30.00,West,270,10.0,25.0,18,0.00,,,-99.99,,2013-04-18 19:32:00,
2013-04-18 13:42:00,43.0,2.0,30.00,West,270,10.0,25.0,18,0.00,,,-99.99,,2013-04-18 19:42:00,
2013-04-18 13:52:00,43.0,1.0,30.00,NNW,330,13.0,22.0,17,0.00,,,-99.99,,2013-04-18 19:52:00,
2013-04-18 14:02:00,43.0,1.0,30.00,West,277,11.0,24.0,17,0.00,,,-99.99,,2013-04-18 20:02:00,
2013-04-18 14:12:00,44.0,3.0,30.00,NW,307,13.0,29.0,18,0.00,,,-99.99,,2013-04-18 20:12:00,
2013-04-18 14:22:00,44.0,3.0,30.00,NW,307,13.0,29.0,18,0.00,,,-99.99,,2013-04-18 20:22:00,
2013-04-18 14:32:00,43.0,2.0,30.00,NW,307,15.0,23.0,18,0.00,,,-99.99,,2013-04-18 20:32:00,
2013-04-18 14:42:00,44.0,2.0,30.00,WNW,303,14.0,22.0,17,0.00,,,-99.99,,2013-04-18 20:42:00,
2013-04-18 14:52:00,44.0,2.0,30.00,WNW,303,14.0,22.0,17,0.00,,,-99.99,,2013-04-18 20:52:00,
2013-04-18 15:02:00,45.0,3.0,30.00,NW,307,16.0,26.0,17,0.00,,,-99.99,,2013-04-18 21:02:00,
2013-04-18 15:12:00,46.0,2.0,30.00,West,271,14.0,23.0,16,0.00,,,-99.99,,2013-04-18 21:12:00,
2013-04-18 15:22:00,46.0,2.0,30.00,West,271,14.0,23.0,16,0.00,,,-99.99,,2013-04-18 21:22:00,
2013-04-18 15:32:00,45.0,0.0,29.99,West,281,15.0,24.0,15,0.00,,,-99.99,,2013-04-18 21:32:00,
2013-04-18 15:43:00,45.0,2.0,29.99,NW,316,19.0,27.0,16,0.00,,,-99.99,,2013-04-18 21:43:00,
2013-04-18 15:52:00,45.0,2.0,29.99,NW,316,19.0,27.0,16,0.00,,,-99.99,,2013-04-18 21:52:00,
2013-04-18 16:02:00,45.0,0.0,29.99,NW,326,20.0,30.0,15,0.00,,,-99.99,,2013-04-18 22:02:00,
2013-04-18 16:13:00,45.0,0.0,30.00,NNW,334,13.0,27.0,15,0.00,,,-99.99,,2013-04-18 22:13:00,
2013-04-18 16:22:00,45.0,0.0,30.00,NNW,334,13.0,27.0,15,0.00,,,-99.99,,2013-04-18 22:22:00,
2013-04-18 16:32:00,46.0,2.0,29.99,West,275,12.0,28.0,16,0.00,,,-99.99,,2013-04-18 22:32:00,
2013-04-18 16:42:00,45.0,0.0,30.00,NW,316,17.0,23.0,15,0.00,,,-99.99,,2013-04-18 22:42:00,
2013-04-18 16:52:00,45.0,0.0,30.00,NW,316,17.0,23.0,15,0.00,,,-99.99,,2013-04-18 22:52:00,
2013-04-18 17:03:00,45.0,2.0,30.00,NW,319,17.0,21.0,16,0.00,,,-99.99,,2013-04-18 23:03:00,
2013-04-18 17:11:00,44.0,1.0,30.01,NW,319,16.0,36.0,16,0.00,,,-99.99,,2013-04-18 23:11:00,
2013-04-18 17:21:00,44.0,1.0,30.01,NW,319,16.0,36.0,16,0.00,,,-99.99,,2013-04-18 23:21:00,
2013-04-18 17:32:00,45.0,2.0,30.01,NNW,327,8.0,23.0,16,0.00,,,-99.99,,2013-04-18 23:32:00,
2013-04-18 17:42:00,46.0,2.0,30.02,WNW,296,11.0,22.0,16,0.00,,,-99.99,,2013-04-18 23:42:00,
2013-04-18 17:52:00,46.0,2.0,30.02,WNW,296,11.0,22.0,16,0.00,,,-99.99,,2013-04-18 23:52:00,
2013-04-18 18:01:00,45.0,0.0,30.03,WNW,298,19.0,24.0,15,0.00,,,-99.99,,2013-04-19 00:01:00,
2013-04-18 18:12:00,46.0,1.0,30.03,NNE,29,13.0,21.0,15,0.00,,,-99.99,,2013-04-19 00:12:00,
2013-04-18 18:21:00,46.0,1.0,30.03,NNE,29,13.0,21.0,15,0.00,,,-99.99,,2013-04-19 00:21:00,
2013-04-18 18:32:00,45.0,-1.0,30.05,NNW,337,10.0,27.0,14,0.00,,,-99.99,,2013-04-19 00:32:00,
2013-04-18 18:42:00,44.0,-1.0,30.05,WNW,298,15.0,23.0,15,0.00,,,-99.99,,2013-04-19 00:42:00,
2013-04-18 18:52:00,44.0,-1.0,30.05,WNW,298,15.0,23.0,15,0.00,,,-99.99,,2013-04-19 00:52:00,
2013-04-18 19:01:00,44.0,-1.0,30.06,NW,324,12.0,20.0,15,0.00,,,-99.99,,2013-04-19 01:01:00,
2013-04-18 19:11:00,44.0,-1.0,30.06,NW,324,12.0,20.0,15,0.00,,,-99.99,,2013-04-19 01:11:00,
2013-04-18 19:21:00,44.0,-1.0,30.07,NNW,336,15.0,20.0,15,0.00,,,-99.99,,2013-04-19 01:21:00,
2013-04-18 19:31:00,44.0,-1.0,30.08,NNW,347,16.0,19.0,15,0.00,,,-99.99,,2013-04-19 01:31:00,
2013-04-18 19:42:00,43.0,0.0,30.09,NW,319,9.0,18.0,16,0.00,,,-99.99,,2013-04-19 01:42:00,
2013-04-18 19:52:00,43.0,0.0,30.09,NW,319,9.0,18.0,16,0.00,,,-99.99,,2013-04-19 01:52:00,
2013-04-18 20:01:00,43.0,0.0,30.10,NW,317,13.0,19.0,16,0.00,,,-99.99,,2013-04-19 02:01:00,
2013-04-18 20:11:00,43.0,0.0,30.10,NW,317,13.0,19.0,16,0.00,,,-99.99,,2013-04-19 02:11:00,
2013-04-18 20:21:00,43.0,1.0,30.11,NW,320,9.0,17.0,17,0.00,,,-99.99,,2013-04-19 02:21:00,
2013-04-18 20:32:00,42.0,2.0,30.12,NW,310,12.0,27.0,18,0.00,,,-99.99,,2013-04-19 02:32:00,
2013-04-18 20:42:00,42.0,3.0,30.14,NNW,329,9.0,18.0,19,0.00,,,-99.99,,2013-04-19 02:42:00,
2013-04-18 20:52:00,42.0,3.0,30.14,NNW,329,9.0,18.0,19,0.00,,,-99.99,,2013-04-19 02:52:00,
2013-04-18 21:01:00,42.0,3.0,30.15,NW,322,9.0,17.0,19,0.00,,,-99.99,,2013-04-19 03:01:00,
2013-04-18 21:11:00,41.0,2.0,30.17,NW,320,9.0,17.0,19,0.00,,,-99.99,,2013-04-19 03:11:00,
2013-04-18 21:21:00,41.0,2.0,30.17,NW,320,9.0,17.0,19,0.00,,,-99.99,,2013-04-19 03:21:00,
2013-04-18 21:32:00,41.0,3.0,30.18,NW,305,7.0,15.0,20,0.00,,,-99.99,,2013-04-19 03:32:00,
2013-04-18 21:43:00,41.0,4.0,30.20,NW,315,9.0,14.0,21,0.00,,,-99.99,,2013-04-19 03:43:00,
2013-04-18 21:53:00,41.0,4.0,30.20,NW,315,9.0,14.0,21,0.00,,,-99.99,,2013-04-19 03:53:00,
2013-04-18 22:03:00,40.0,3.0,30.20,NW,323,7.0,15.0,21,0.00,,,-99.99,,2013-04-19 04:03:00,
2013-04-18 22:13:00,40.0,4.0,30.22,NNW,327,6.0,8.0,22,0.00,,,-99.99,,2013-04-19 04:13:00,
2013-04-18 22:23:00,40.0,4.0,30.22,NNW,327,6.0,8.0,22,0.00,,,-99.99,,2013-04-19 04:23:00,
2013-04-18 22:33:00,40.0,5.0,30.22,North,9,6.0,9.0,23,0.00,,,-99.99,,2013-04-19 04:33:00,
2013-04-18 22:43:00,39.0,5.0,30.22,NE,37,3.0,6.0,24,0.00,,,-99.99,,2013-04-19 04:43:00,
2013-04-18 22:52:00,39.0,5.0,30.22,NE,37,3.0,6.0,24,0.00,,,-99.99,,2013-04-19 04:52:00,
2013-04-18 23:03:00,39.0,6.0,30.23,NNE,29,3.0,6.0,25,0.00,,,-99.99,,2013-04-19 05:03:00,
2013-04-18 23:11:00,39.0,6.0,30.23,NNE,29,3.0,6.0,25,0.00,,,-99.99,,2013-04-19 05:11:00,
2013-04-18 23:22:00,39.0,6.0,30.23,NE,40,4.0,8.0,25,0.00,,,-99.99,,2013-04-19 05:22:00,
2013-04-18 23:32:00,39.0,6.0,30.24,NNE,32,5.0,13.0,25,0.00,,,-99.99,,2013-04-19 05:32:00,
2013-04-18 23:42:00,39.0,6.0,30.24,NNE,32,5.0,13.0,25,0.00,,,-99.99,,2013-04-19 05:42:00,
2013-04-18 23:52:00,38.0,6.0,30.25,North,352,7.0,9.0,26,0.00,,,-99.99,,2013-04-19 05:52:00,